VRG1038 SBFL-SBPA
Flight info
| Callsign | VRG1038 |
|---|---|
| Flight time | 0h 40m |
| Altitude | 28000 |
| Route | UGREV UN857 TIMVI |
| Aircraft | B739/M-SDE2E3FGHIRWXY/LB1 |
Departure
| Time | 2026-04-25 14:12 |
|---|---|
| Airport | Hercílio Luz International Airport (SBFL) |
Arrival
| Time | 2026-04-25 14:53 |
|---|---|
| Airport | Porto Alegre-Salgado Filho International Airport (SBPA) |
| Time | Latitude | Longitude | Altitude | Speed | Heading |
|---|---|---|---|---|---|
| 2026-04-25 13:49 | -27.67300 | -48.54500 | 23 ft | 0 kts | 209° |
| 2026-04-25 14:03 | -27.67284 | -48.54491 | 6 ft | 2 kts | 204° |
| 2026-04-25 14:03 | -27.67268 | -48.54488 | 40 ft | 2 kts | 141° |
| 2026-04-25 14:03 | -27.67260 | -48.54497 | 24 ft | 1 kts | 124° |
| 2026-04-25 14:03 | -27.67259 | -48.54498 | 24 ft | 0 kts | 123° |
| 2026-04-25 14:06 | -27.67265 | -48.54488 | 38 ft | 5 kts | 122° |
| 2026-04-25 14:06 | -27.67285 | -48.54451 | 16 ft | 6 kts | 122° |
| 2026-04-25 14:06 | -27.67301 | -48.54413 | 23 ft | 5 kts | 101° |
| 2026-04-25 14:06 | -27.67289 | -48.54375 | 26 ft | 5 kts | 44° |
| 2026-04-25 14:07 | -27.67258 | -48.54349 | 23 ft | 5 kts | 35° |
| 2026-04-25 14:07 | -27.67228 | -48.54325 | 26 ft | 5 kts | 45° |
| 2026-04-25 14:07 | -27.67222 | -48.54285 | 24 ft | 5 kts | 101° |
| 2026-04-25 14:07 | -27.67236 | -48.54248 | 26 ft | 5 kts | 116° |
| 2026-04-25 14:08 | -27.67254 | -48.54212 | 26 ft | 5 kts | 117° |
| 2026-04-25 14:08 | -27.67273 | -48.54177 | 23 ft | 5 kts | 123° |
| 2026-04-25 14:08 | -27.67293 | -48.54142 | 23 ft | 7 kts | 121° |
| 2026-04-25 14:08 | -27.67334 | -48.54067 | 23 ft | 12 kts | 121° |
| 2026-04-25 14:09 | -27.67377 | -48.53987 | 23 ft | 12 kts | 121° |
| 2026-04-25 14:09 | -27.67418 | -48.53909 | 23 ft | 11 kts | 121° |
| 2026-04-25 14:09 | -27.67459 | -48.53833 | 23 ft | 11 kts | 121° |
| 2026-04-25 14:09 | -27.67486 | -48.53783 | 23 ft | 11 kts | 121° |
| 2026-04-25 14:10 | -27.67538 | -48.53687 | 25 ft | 11 kts | 121° |
| 2026-04-25 14:10 | -27.67591 | -48.53590 | 23 ft | 29 kts | 121° |
| 2026-04-25 14:10 | -27.67712 | -48.53366 | 24 ft | 28 kts | 121° |
| 2026-04-25 14:10 | -27.67786 | -48.53229 | 26 ft | 15 kts | 121° |
| 2026-04-25 14:11 | -27.67795 | -48.53126 | 24 ft | 14 kts | 45° |
| 2026-04-25 14:11 | -27.67716 | -48.53071 | 23 ft | 11 kts | 19° |
| 2026-04-25 14:11 | -27.67686 | -48.53068 | 26 ft | 5 kts | 349° |
| 2026-04-25 14:11 | -27.67664 | -48.53088 | 24 ft | 0 kts | 306° |
| 2026-04-25 14:12 | -27.67634 | -48.53140 | 23 ft | 33 kts | 300° |
| 2026-04-25 14:12 | -27.67361 | -48.53653 | 21 ft | 115 kts | 301° |
| 2026-04-25 14:12 | -27.66838 | -48.54631 | 27 ft | 176 kts | 301° |
| 2026-04-25 14:12 | -27.66184 | -48.55847 | 629 ft | 185 kts | 301° |
| 2026-04-25 14:13 | -27.65488 | -48.57095 | 1475 ft | 187 kts | 303° |
| 2026-04-25 14:13 | -27.64818 | -48.58278 | 2608 ft | 174 kts | 300° |
| 2026-04-25 14:13 | -27.64185 | -48.59472 | 3271 ft | 180 kts | 298° |
| 2026-04-25 14:13 | -27.63569 | -48.60705 | 3855 ft | 179 kts | 296° |
| 2026-04-25 14:14 | -27.63009 | -48.61922 | 4579 ft | 171 kts | 290° |
| 2026-04-25 14:14 | -27.62798 | -48.63228 | 5100 ft | 176 kts | 262° |
| 2026-04-25 14:14 | -27.63297 | -48.64516 | 5563 ft | 184 kts | 236° |
| 2026-04-25 14:14 | -27.64105 | -48.65635 | 6126 ft | 186 kts | 233° |
| 2026-04-25 14:15 | -27.64973 | -48.66751 | 6574 ft | 191 kts | 233° |
| 2026-04-25 14:15 | -27.65257 | -48.67121 | 6730 ft | 194 kts | 233° |
| 2026-04-25 14:15 | -27.66456 | -48.69424 | 7362 ft | 220 kts | 246° |
| 2026-04-25 14:15 | -27.67204 | -48.71038 | 7542 ft | 249 kts | 244° |
| 2026-04-25 14:16 | -27.68070 | -48.72796 | 8020 ft | 261 kts | 243° |
| 2026-04-25 14:16 | -27.69002 | -48.74638 | 8019 ft | 272 kts | 242° |
| 2026-04-25 14:16 | -27.69949 | -48.76475 | 7992 ft | 268 kts | 242° |
| 2026-04-25 14:16 | -27.70880 | -48.78262 | 8012 ft | 261 kts | 242° |
| 2026-04-25 14:17 | -27.71801 | -48.80021 | 8020 ft | 260 kts | 242° |
| 2026-04-25 14:17 | -27.72726 | -48.81787 | 8033 ft | 261 kts | 242° |
| 2026-04-25 14:17 | -27.73641 | -48.83530 | 8031 ft | 262 kts | 242° |
| 2026-04-25 14:17 | -27.74592 | -48.85303 | 8037 ft | 265 kts | 237° |
| 2026-04-25 14:18 | -27.75974 | -48.86708 | 8032 ft | 274 kts | 214° |
| 2026-04-25 14:18 | -27.77792 | -48.87431 | 8485 ft | 282 kts | 196° |
| 2026-04-25 14:18 | -27.79748 | -48.87845 | 9114 ft | 291 kts | 194° |
| 2026-04-25 14:18 | -27.81739 | -48.88234 | 10035 ft | 289 kts | 195° |
| 2026-04-25 14:19 | -27.83740 | -48.88623 | 10691 ft | 299 kts | 195° |
| 2026-04-25 14:19 | -27.85878 | -48.89050 | 10877 ft | 326 kts | 195° |
| 2026-04-25 14:19 | -27.88190 | -48.89517 | 11033 ft | 349 kts | 195° |
| 2026-04-25 14:19 | -27.90646 | -48.90011 | 11248 ft | 366 kts | 194° |
| 2026-04-25 14:20 | -27.93176 | -48.90517 | 11716 ft | 372 kts | 194° |
| 2026-04-25 14:20 | -27.94874 | -48.90856 | 12140 ft | 373 kts | 194° |
| 2026-04-25 14:20 | -27.98278 | -48.91539 | 12954 ft | 377 kts | 195° |
| 2026-04-25 14:20 | -28.00872 | -48.92064 | 13543 ft | 380 kts | 195° |
| 2026-04-25 14:21 | -28.03481 | -48.92592 | 14044 ft | 383 kts | 195° |
| 2026-04-25 14:21 | -28.06116 | -48.93127 | 14521 ft | 386 kts | 195° |
| 2026-04-25 14:21 | -28.08770 | -48.93666 | 15026 ft | 388 kts | 195° |
| 2026-04-25 14:21 | -28.11437 | -48.94209 | 15518 ft | 391 kts | 195° |
| 2026-04-25 14:22 | -28.14135 | -48.94757 | 15822 ft | 395 kts | 195° |
| 2026-04-25 14:22 | -28.16842 | -48.95296 | 16329 ft | 395 kts | 195° |
| 2026-04-25 14:22 | -28.19536 | -48.95926 | 16792 ft | 394 kts | 202° |
| 2026-04-25 14:22 | -28.22029 | -48.97162 | 17243 ft | 390 kts | 214° |
| 2026-04-25 14:23 | -28.24237 | -48.98937 | 17668 ft | 388 kts | 226° |
| 2026-04-25 14:23 | -28.26078 | -49.01165 | 18125 ft | 387 kts | 232° |
| 2026-04-25 14:23 | -28.27823 | -49.03454 | 18528 ft | 389 kts | 232° |
| 2026-04-25 14:23 | -28.29619 | -49.05774 | 18939 ft | 391 kts | 231° |
| 2026-04-25 14:24 | -28.31456 | -49.08060 | 19354 ft | 393 kts | 231° |
| 2026-04-25 14:24 | -28.33319 | -49.10352 | 19674 ft | 396 kts | 231° |
| 2026-04-25 14:24 | -28.35196 | -49.12658 | 20038 ft | 398 kts | 231° |
| 2026-04-25 14:24 | -28.37082 | -49.14980 | 20375 ft | 401 kts | 231° |
| 2026-04-25 14:25 | -28.38978 | -49.17318 | 20776 ft | 403 kts | 231° |
| 2026-04-25 14:25 | -28.40875 | -49.19669 | 21112 ft | 404 kts | 231° |
| 2026-04-25 14:25 | -28.42779 | -49.22029 | 21489 ft | 405 kts | 231° |
| 2026-04-25 14:25 | -28.43397 | -49.22796 | 21609 ft | 406 kts | 231° |
| 2026-04-25 14:26 | -28.46597 | -49.26767 | 22200 ft | 408 kts | 231° |
| 2026-04-25 14:26 | -28.48515 | -49.29156 | 22494 ft | 411 kts | 231° |
| 2026-04-25 14:26 | -28.50450 | -49.31572 | 22822 ft | 412 kts | 232° |
| 2026-04-25 14:26 | -28.52363 | -49.33962 | 23145 ft | 413 kts | 232° |
| 2026-04-25 14:27 | -28.54300 | -49.36385 | 23457 ft | 414 kts | 232° |
| 2026-04-25 14:27 | -28.56246 | -49.38820 | 23720 ft | 415 kts | 232° |
| 2026-04-25 14:27 | -28.58190 | -49.41253 | 24032 ft | 415 kts | 232° |
| 2026-04-25 14:27 | -28.60132 | -49.43684 | 24300 ft | 415 kts | 232° |
| 2026-04-25 14:28 | -28.62075 | -49.46118 | 24579 ft | 416 kts | 232° |
| 2026-04-25 14:28 | -28.64017 | -49.48553 | 24852 ft | 416 kts | 233° |
| 2026-04-25 14:28 | -28.65964 | -49.50995 | 25119 ft | 416 kts | 233° |
| 2026-04-25 14:28 | -28.67907 | -49.53435 | 25392 ft | 416 kts | 233° |
| 2026-04-25 14:29 | -28.69852 | -49.55877 | 25697 ft | 415 kts | 233° |
| 2026-04-25 14:29 | -28.71783 | -49.58301 | 26085 ft | 411 kts | 234° |
| 2026-04-25 14:29 | -28.73693 | -49.60701 | 26583 ft | 406 kts | 234° |
| 2026-04-25 14:29 | -28.75574 | -49.63064 | 27101 ft | 400 kts | 234° |
| 2026-04-25 14:30 | -28.77437 | -49.65409 | 27550 ft | 397 kts | 235° |
| 2026-04-25 14:30 | -28.81126 | -49.70061 | 27978 ft | 394 kts | 235° |
| 2026-04-25 14:30 | -28.82933 | -49.72344 | 27994 ft | 394 kts | 235° |
| 2026-04-25 14:31 | -28.86621 | -49.77003 | 28004 ft | 396 kts | 235° |
| 2026-04-25 14:31 | -28.88447 | -49.79302 | 27987 ft | 381 kts | 236° |
| 2026-04-25 14:31 | -28.90206 | -49.81481 | 27981 ft | 368 kts | 233° |
| 2026-04-25 14:32 | -28.92123 | -49.83435 | 27999 ft | 370 kts | 229° |
| 2026-04-25 14:32 | -28.94123 | -49.85297 | 27997 ft | 371 kts | 228° |
| 2026-04-25 14:32 | -28.96151 | -49.87144 | 27625 ft | 373 kts | 228° |
| 2026-04-25 14:32 | -28.98167 | -49.88976 | 27180 ft | 370 kts | 228° |
| 2026-04-25 14:33 | -29.00164 | -49.90798 | 26704 ft | 366 kts | 227° |
| 2026-04-25 14:33 | -29.02139 | -49.92617 | 26222 ft | 362 kts | 227° |
| 2026-04-25 14:33 | -29.04090 | -49.94425 | 25744 ft | 359 kts | 227° |
| 2026-04-25 14:33 | -29.06024 | -49.96224 | 25269 ft | 357 kts | 227° |
| 2026-04-25 14:34 | -29.07947 | -49.98020 | 24761 ft | 357 kts | 227° |
| 2026-04-25 14:34 | -29.09867 | -49.99815 | 24277 ft | 356 kts | 227° |
| 2026-04-25 14:34 | -29.11782 | -50.01606 | 23790 ft | 356 kts | 226° |
| 2026-04-25 14:34 | -29.13695 | -50.03396 | 23241 ft | 355 kts | 226° |
| 2026-04-25 14:35 | -29.15603 | -50.05182 | 22722 ft | 353 kts | 226° |
| 2026-04-25 14:35 | -29.17477 | -50.06935 | 22241 ft | 351 kts | 226° |
| 2026-04-25 14:35 | -29.19363 | -50.08702 | 21790 ft | 350 kts | 226° |
| 2026-04-25 14:35 | -29.21240 | -50.10462 | 21289 ft | 349 kts | 226° |
| 2026-04-25 14:36 | -29.23116 | -50.12221 | 20852 ft | 347 kts | 226° |
| 2026-04-25 14:36 | -29.24984 | -50.13974 | 20375 ft | 347 kts | 226° |
| 2026-04-25 14:36 | -29.26848 | -50.15724 | 19892 ft | 345 kts | 225° |
| 2026-04-25 14:36 | -29.28705 | -50.17466 | 19441 ft | 344 kts | 225° |
| 2026-04-25 14:37 | -29.30551 | -50.19201 | 18970 ft | 342 kts | 225° |
| 2026-04-25 14:37 | -29.32391 | -50.20931 | 18513 ft | 342 kts | 225° |
| 2026-04-25 14:37 | -29.34230 | -50.22661 | 18026 ft | 342 kts | 225° |
| 2026-04-25 14:37 | -29.35447 | -50.23805 | 17651 ft | 341 kts | 225° |
| 2026-04-25 14:38 | -29.37888 | -50.26102 | 17054 ft | 337 kts | 225° |
| 2026-04-25 14:38 | -29.39086 | -50.27231 | 16749 ft | 335 kts | 225° |
| 2026-04-25 14:38 | -29.40758 | -50.29052 | 16299 ft | 329 kts | 232° |
| 2026-04-25 14:38 | -29.42255 | -50.31017 | 15856 ft | 325 kts | 234° |
| 2026-04-25 14:39 | -29.43696 | -50.33011 | 15424 ft | 323 kts | 235° |
| 2026-04-25 14:39 | -29.45123 | -50.34999 | 14991 ft | 321 kts | 235° |
| 2026-04-25 14:39 | -29.46549 | -50.36969 | 14549 ft | 320 kts | 234° |
| 2026-04-25 14:39 | -29.47981 | -50.38932 | 14111 ft | 319 kts | 234° |
| 2026-04-25 14:40 | -29.49394 | -50.40854 | 13667 ft | 320 kts | 233° |
| 2026-04-25 14:40 | -29.50850 | -50.42827 | 13176 ft | 319 kts | 233° |
| 2026-04-25 14:40 | -29.52264 | -50.44737 | 12719 ft | 316 kts | 233° |
| 2026-04-25 14:40 | -29.53703 | -50.46675 | 12307 ft | 314 kts | 233° |
| 2026-04-25 14:41 | -29.55097 | -50.48554 | 11897 ft | 313 kts | 233° |
| 2026-04-25 14:41 | -29.56509 | -50.50457 | 11460 ft | 314 kts | 233° |
| 2026-04-25 14:41 | -29.57925 | -50.52367 | 11030 ft | 313 kts | 233° |
| 2026-04-25 14:41 | -29.59337 | -50.54272 | 10622 ft | 313 kts | 233° |
| 2026-04-25 14:42 | -29.60727 | -50.56144 | 10471 ft | 303 kts | 233° |
| 2026-04-25 14:42 | -29.61623 | -50.57352 | 10357 ft | 296 kts | 232° |
| 2026-04-25 14:42 | -29.63369 | -50.59708 | 10200 ft | 282 kts | 233° |
| 2026-04-25 14:42 | -29.64618 | -50.61394 | 10067 ft | 272 kts | 233° |
| 2026-04-25 14:43 | -29.65831 | -50.63034 | 9856 ft | 267 kts | 233° |
| 2026-04-25 14:43 | -29.67025 | -50.64650 | 9601 ft | 263 kts | 233° |
| 2026-04-25 14:43 | -29.68193 | -50.66232 | 9303 ft | 262 kts | 233° |
| 2026-04-25 14:43 | -29.69383 | -50.67843 | 8996 ft | 260 kts | 233° |
| 2026-04-25 14:44 | -29.70534 | -50.69401 | 8710 ft | 258 kts | 233° |
| 2026-04-25 14:44 | -29.71688 | -50.70964 | 8412 ft | 255 kts | 233° |
| 2026-04-25 14:44 | -29.72835 | -50.72506 | 8145 ft | 253 kts | 231° |
| 2026-04-25 14:44 | -29.74056 | -50.73952 | 7878 ft | 251 kts | 228° |
| 2026-04-25 14:45 | -29.75304 | -50.75352 | 7594 ft | 249 kts | 227° |
| 2026-04-25 14:45 | -29.76542 | -50.76734 | 7327 ft | 247 kts | 227° |
| 2026-04-25 14:45 | -29.77772 | -50.78111 | 7047 ft | 245 kts | 227° |
| 2026-04-25 14:45 | -29.78986 | -50.79477 | 6776 ft | 243 kts | 227° |
| 2026-04-25 14:46 | -29.80183 | -50.80829 | 6521 ft | 240 kts | 227° |
| 2026-04-25 14:46 | -29.81332 | -50.82129 | 6264 ft | 238 kts | 227° |
| 2026-04-25 14:46 | -29.82510 | -50.83464 | 6008 ft | 239 kts | 227° |
| 2026-04-25 14:46 | -29.83711 | -50.84827 | 5763 ft | 246 kts | 226° |
| 2026-04-25 14:47 | -29.84948 | -50.86233 | 5484 ft | 254 kts | 226° |
| 2026-04-25 14:47 | -29.85785 | -50.87185 | 5308 ft | 257 kts | 226° |
| 2026-04-25 14:47 | -29.87503 | -50.89136 | 4888 ft | 259 kts | 226° |
| 2026-04-25 14:47 | -29.88764 | -50.90570 | 4594 ft | 257 kts | 226° |
| 2026-04-25 14:48 | -29.90036 | -50.92009 | 4268 ft | 254 kts | 224° |
| 2026-04-25 14:48 | -29.91522 | -50.93063 | 3939 ft | 252 kts | 202° |
| 2026-04-25 14:48 | -29.93151 | -50.93765 | 3750 ft | 246 kts | 202° |
| 2026-04-25 14:48 | -29.94726 | -50.94459 | 3608 ft | 238 kts | 202° |
| 2026-04-25 14:49 | -29.96244 | -50.95134 | 3507 ft | 229 kts | 202° |
| 2026-04-25 14:49 | -29.97705 | -50.95787 | 3407 ft | 221 kts | 201° |
| 2026-04-25 14:49 | -29.99035 | -50.96647 | 3124 ft | 222 kts | 228° |
| 2026-04-25 14:49 | -29.99743 | -50.98188 | 2895 ft | 219 kts | 258° |
| 2026-04-25 14:50 | -29.99845 | -50.99936 | 2645 ft | 219 kts | 269° |
| 2026-04-25 14:50 | -29.99802 | -51.01676 | 2395 ft | 214 kts | 270° |
| 2026-04-25 14:50 | -29.99755 | -51.03360 | 2175 ft | 204 kts | 270° |
| 2026-04-25 14:50 | -29.99714 | -51.04946 | 1971 ft | 191 kts | 269° |
| 2026-04-25 14:51 | -29.99677 | -51.06417 | 1782 ft | 176 kts | 269° |
| 2026-04-25 14:51 | -29.99646 | -51.07774 | 1623 ft | 161 kts | 268° |
| 2026-04-25 14:51 | -29.99620 | -51.09066 | 1524 ft | 162 kts | 269° |
| 2026-04-25 14:51 | -29.99594 | -51.10378 | 1058 ft | 165 kts | 269° |
| 2026-04-25 14:52 | -29.99573 | -51.11691 | 790 ft | 164 kts | 268° |
| 2026-04-25 14:52 | -29.99560 | -51.12944 | 583 ft | 147 kts | 271° |
| 2026-04-25 14:52 | -29.99516 | -51.14079 | 280 ft | 137 kts | 271° |
| 2026-04-25 14:52 | -29.99506 | -51.14831 | 95 ft | 143 kts | 271° |
| 2026-04-25 14:53 | -29.99478 | -51.16301 | 21 ft | 118 kts | 271° |
| 2026-04-25 14:53 | -29.99465 | -51.16985 | 15 ft | 64 kts | 271° |
| 2026-04-25 14:53 | -29.99457 | -51.17360 | 17 ft | 37 kts | 271° |
| 2026-04-25 14:53 | -29.99453 | -51.17560 | 19 ft | 19 kts | 271° |
| 2026-04-25 14:54 | -29.99445 | -51.17671 | 22 ft | 10 kts | 294° |
| 2026-04-25 14:54 | -29.99389 | -51.17700 | 22 ft | 9 kts | 354° |
| 2026-04-25 14:54 | -29.99324 | -51.17699 | 19 ft | 9 kts | 2° |
| 2026-04-25 14:54 | -29.99263 | -51.17698 | 18 ft | 9 kts | 359° |
| 2026-04-25 14:55 | -29.99202 | -51.17700 | 20 ft | 9 kts | 345° |
| 2026-04-25 14:55 | -29.99165 | -51.17726 | 18 ft | 6 kts | 336° |
| 2026-04-25 14:55 | -29.99127 | -51.17719 | 18 ft | 6 kts | 15° |
| 2026-04-25 14:55 | -29.99103 | -51.17713 | 21 ft | 0 kts | 13° |